Time;durP1;ratioP1;P1;durP2;ratioP2;P2;SDS_P1;SDS_P2;PMS_P1;PMS_P2;Temp;Humidity;BMP_temperature;BMP_pressure;BME280_temperature;BME280_humidity;BME280_pressure;Samples;Min_cycle;Max_cycle;Signal;HPM_P1;HPM_P2
2022/06/23 00:01:57;;;;;;;7.28;2.35;;;21.60;78.60;;;;;;4990080;28;20049;-67
2022/06/23 00:04:28;;;;;;;5.85;2.38;;;21.50;78.70;;;;;;4992039;28;20130;-68
2022/06/23 00:06:57;;;;;;;8.38;2.53;;;21.40;78.90;;;;;;4988843;28;20038;-68
2022/06/23 00:09:39;;;;;;;8.23;2.50;;;21.40;78.90;;;;;;4992065;28;20410;-68
2022/06/23 00:12:26;;;;;;;5.30;2.30;;;21.30;78.90;;;;;;4988635;28;20096;-68
2022/06/23 00:14:54;;;;;;;8.07;2.85;;;21.40;79.40;;;;;;4990122;28;20038;-68
2022/06/23 00:17:28;;;;;;;6.35;2.50;;;21.40;79.10;;;;;;4989384;28;20034;-68
2022/06/23 00:19:55;;;;;;;7.75;2.42;;;21.40;79.30;;;;;;4990420;28;20034;-68
2022/06/23 00:22:24;;;;;;;7.68;2.53;;;21.30;78.90;;;;;;4988875;28;20035;-68
2022/06/23 00:24:58;;;;;;;9.35;2.40;;;21.30;79.10;;;;;;4988665;28;20054;-68
2022/06/23 00:27:30;;;;;;;9.20;2.88;;;21.30;79.20;;;;;;4992714;28;20319;-69
2022/06/23 00:30:00;;;;;;;8.13;2.70;;;21.20;79.40;;;;;;4991590;28;20042;-68
2022/06/23 00:32:27;;;;;;;5.88;2.70;;;21.20;79.80;;;;;;4991833;28;20030;-67
2022/06/23 00:35:03;;;;;;;6.50;3.00;;;21.20;79.60;;;;;;4992959;28;20034;-67
2022/06/23 00:37:29;;;;;;;5.55;2.85;;;21.10;80.00;;;;;;4991490;28;20422;-68
2022/06/23 00:40:06;;;;;;;8.45;2.80;;;21.10;80.00;;;;;;4994354;28;20494;-67
2022/06/23 00:43:00;;;;;;;8.25;2.63;;;21.10;80.60;;;;;;4994831;28;20129;-67
2022/06/23 00:45:42;;;;;;;9.55;2.55;;;21.00;80.30;;;;;;4980167;28;20327;-68
2022/06/23 00:48:20;;;;;;;10.80;3.20;;;21.00;80.70;;;;;;4990904;28;20065;-68
2022/06/23 00:50:51;;;;;;;7.95;2.83;;;21.00;80.70;;;;;;4992254;28;20038;-68
2022/06/23 00:53:38;;;;;;;6.47;2.60;;;20.90;80.70;;;;;;4993731;28;20041;-68
2022/06/23 00:56:07;;;;;;;4.25;2.28;;;20.90;80.70;;;;;;4993225;28;20030;-68
2022/06/23 00:58:56;;;;;;;9.35;2.88;;;20.80;80.70;;;;;;4993765;28;20612;-67
2022/06/23 01:01:24;;;;;;;8.65;2.70;;;20.80;81.40;;;;;;4995582;28;20042;-68
2022/06/23 01:04:31;;;;;;;8.65;2.60;;;20.70;80.80;;;;;;4992593;28;20054;-68
2022/06/23 01:07:16;;;;;;;6.85;2.25;;;20.70;81.50;;;;;;4994665;28;20030;-67
2022/06/23 01:09:48;;;;;;;;;;;20.70;81.40;;;;;;4994590;28;20062;-66
2022/06/23 01:12:26;;;;;;;8.18;2.92;;;20.70;81.20;;;;;;4994174;28;20748;-69
2022/06/23 01:14:59;;;;;;;7.30;2.45;;;20.60;80.60;;;;;;4993722;28;20039;-68
2022/06/23 01:17:37;;;;;;;7.55;2.80;;;20.60;81.00;;;;;;4991234;28;20042;-68
2022/06/23 01:20:17;;;;;;;7.00;2.40;;;20.60;81.10;;;;;;4993604;28;20520;-68
2022/06/23 01:22:48;;;;;;;13.38;3.22;;;20.60;81.70;;;;;;4993602;28;20061;-68
2022/06/23 01:25:32;;;;;;;9.65;2.80;;;20.50;81.40;;;;;;4990261;28;20042;-66
2022/06/23 01:28:01;;;;;;;5.47;2.45;;;20.50;81.70;;;;;;4993218;28;20030;-68
2022/06/23 01:30:36;;;;;;;7.90;2.83;;;20.50;81.30;;;;;;4992249;28;20133;-69
2022/06/23 01:33:01;;;;;;;;;;;20.50;81.30;;;;;;4992689;28;20112;-67
2022/06/23 01:35:43;;;;;;;5.55;2.08;;;20.50;81.40;;;;;;4989221;28;20395;-69
2022/06/23 01:38:23;;;;;;;5.28;2.20;;;20.50;81.20;;;;;;4996070;28;20563;-68
2022/06/23 01:40:59;;;;;;;5.43;2.22;;;20.50;81.00;;;;;;4992527;28;20119;-68
2022/06/23 01:43:47;;;;;;;6.85;1.95;;;20.50;81.00;;;;;;4992291;28;20026;-69
2022/06/23 01:46:22;;;;;;;4.78;2.20;;;20.50;81.00;;;;;;4991398;28;20053;-68
2022/06/23 01:49:02;;;;;;;5.15;1.88;;;20.40;80.90;;;;;;4992965;28;20477;-67
2022/06/23 01:51:30;;;;;;;6.05;1.88;;;20.40;80.90;;;;;;4995990;28;20045;-68
2022/06/23 01:54:21;;;;;;;5.85;2.08;;;20.40;80.60;;;;;;4990952;28;20574;-67
2022/06/23 01:57:04;;;;;;;6.93;1.90;;;20.40;80.50;;;;;;4985157;28;20452;-68
2022/06/23 01:59:48;;;;;;;8.75;1.70;;;20.40;80.20;;;;;;4991176;28;20041;-68
2022/06/23 02:02:28;;;;;;;5.25;2.20;;;20.40;79.90;;;;;;4988816;28;20409;-67
2022/06/23 02:04:59;;;;;;;5.03;1.83;;;20.30;79.80;;;;;;4991072;28;20038;-67
2022/06/23 02:07:29;;;;;;;3.13;1.67;;;20.30;79.90;;;;;;4994646;28;20037;-67
2022/06/23 02:10:09;;;;;;;4.20;1.85;;;20.30;79.90;;;;;;4993383;28;20049;-67
2022/06/23 02:12:57;;;;;;;5.15;1.95;;;20.30;80.00;;;;;;4992997;28;20037;-68
2022/06/23 02:15:25;;;;;;;3.08;1.77;;;20.30;80.20;;;;;;4991677;28;20035;-67
2022/06/23 02:18:01;;;;;;;5.60;1.95;;;20.30;79.90;;;;;;4995092;28;20046;-68
2022/06/23 02:20:30;;;;;;;3.38;1.70;;;20.30;80.10;;;;;;4991403;28;20041;-68
2022/06/23 02:23:11;;;;;;;4.30;1.73;;;20.20;79.80;;;;;;4992907;28;20033;-68
2022/06/23 02:25:44;;;;;;;3.25;1.73;;;20.20;80.00;;;;;;4992346;28;20023;-68
2022/06/23 02:28:27;;;;;;;3.92;1.67;;;20.20;79.80;;;;;;4991927;28;20121;-68
2022/06/23 02:31:19;;;;;;;8.02;1.90;;;20.20;80.00;;;;;;4977328;28;20058;-67
2022/06/23 02:34:12;;;;;;;4.88;2.10;;;20.20;79.80;;;;;;4994445;28;20026;-67
2022/06/23 02:37:01;;;;;;;6.53;1.73;;;20.10;79.50;;;;;;4991053;28;20027;-68
2022/06/23 02:39:47;;;;;;;7.18;1.85;;;20.10;79.50;;;;;;4991763;28;20671;-68
2022/06/23 02:42:37;;;;;;;5.80;1.80;;;20.00;80.50;;;;;;4996098;28;20038;-68
2022/06/23 02:45:30;;;;;;;6.03;1.73;;;20.00;80.10;;;;;;4996253;28;20041;-68
2022/06/23 02:47:55;;;;;;;5.47;1.70;;;20.00;80.00;;;;;;4991448;28;20053;-68
2022/06/23 02:50:30;;;;;;;6.65;1.67;;;19.90;79.60;;;;;;4990459;28;20532;-68
2022/06/23 02:53:08;;;;;;;6.68;1.95;;;19.90;79.50;;;;;;4992111;28;20786;-66
2022/06/23 02:55:43;;;;;;;4.63;1.83;;;19.90;80.10;;;;;;4990321;28;20100;-68
2022/06/23 02:58:09;;;;;;;4.60;1.80;;;19.90;80.10;;;;;;4989989;28;20088;-68
2022/06/23 03:00:41;;;;;;;7.88;1.70;;;19.90;80.00;;;;;;4991635;28;20069;-65
2022/06/23 03:03:33;;;;;;;4.15;1.60;;;19.80;80.10;;;;;;4990475;28;20041;-68
2022/06/23 03:06:28;;;;;;;5.35;1.70;;;19.80;80.30;;;;;;4995011;28;20109;-68
2022/06/23 03:09:17;;;;;;;4.40;1.70;;;19.80;80.00;;;;;;4990788;28;20030;-68
2022/06/23 03:11:51;;;;;;;2.38;1.50;;;19.80;80.00;;;;;;4992733;28;20058;-68
2022/06/23 03:14:42;;;;;;;6.13;1.88;;;19.70;80.00;;;;;;4993380;28;20029;-68
2022/06/23 03:17:13;;;;;;;5.15;1.70;;;19.70;79.80;;;;;;4990062;28;20163;-68
2022/06/23 03:19:49;;;;;;;4.78;1.60;;;19.70;79.70;;;;;;4990650;28;20067;-68
2022/06/23 03:22:23;;;;;;;5.82;1.40;;;19.70;80.00;;;;;;4992350;28;20034;-68
2022/06/23 03:25:07;;;;;;;4.65;1.58;;;19.70;80.10;;;;;;4993877;28;20128;-68
2022/06/23 03:27:47;;;;;;;6.03;1.58;;;19.70;80.10;;;;;;4991579;28;20057;-68
2022/06/23 03:30:35;;;;;;;3.65;1.50;;;19.70;80.10;;;;;;4993401;28;20033;-68
2022/06/23 03:33:41;;;;;;;4.22;1.73;;;19.70;80.00;;;;;;4991476;28;20034;-68
2022/06/23 03:36:12;;;;;;;;;;;19.70;80.10;;;;;;4989747;28;20057;-68
2022/06/23 03:41:46;;;;;;;3.63;1.40;;;19.60;79.90;;;;;;4991966;28;20373;-68
2022/06/23 03:44:30;;;;;;;3.80;1.60;;;19.60;79.90;;;;;;4990197;28;20440;-68
2022/06/23 03:47:19;;;;;;;3.05;1.52;;;19.60;80.40;;;;;;4992214;28;20089;-68
2022/06/23 03:50:07;;;;;;;6.82;2.08;;;19.60;80.40;;;;;;4991816;28;20425;-69
2022/06/23 03:52:42;;;;;;;6.57;1.67;;;19.60;80.30;;;;;;4990163;28;20149;-68
2022/06/23 03:55:30;;;;;;;8.13;1.77;;;19.60;80.50;;;;;;4995193;28;20050;-68
2022/06/23 03:58:01;;;;;;;4.10;1.85;;;19.60;80.80;;;;;;4993565;28;20521;-67
2022/06/23 04:00:30;;;;;;;4.43;1.50;;;19.60;80.60;;;;;;4994804;28;20026;-66
2022/06/23 04:03:26;;;;;;;2.97;1.48;;;19.60;80.70;;;;;;4992240;28;20033;-67
2022/06/23 04:05:54;;;;;;;5.40;1.58;;;19.60;81.20;;;;;;4991428;28;20041;-68
2022/06/23 04:08:29;;;;;;;5.07;1.52;;;19.60;80.70;;;;;;4989572;28;20294;-68
2022/06/23 04:10:58;;;;;;;5.22;1.70;;;19.60;80.70;;;;;;4993161;28;20058;-67
2022/06/23 04:13:30;;;;;;;3.25;1.42;;;19.60;80.70;;;;;;4994465;28;20072;-68
2022/06/23 04:16:04;;;;;;;4.53;1.55;;;19.60;80.80;;;;;;4993131;28;20038;-67
2022/06/23 04:18:31;;;;;;;4.65;1.42;;;19.60;81.10;;;;;;4993235;28;20349;-68
2022/06/23 04:21:11;;;;;;;3.92;1.48;;;19.70;81.00;;;;;;4997065;28;20083;-67
2022/06/23 04:23:42;;;;;;;3.72;1.50;;;19.70;81.20;;;;;;4994304;28;20030;-68
2022/06/23 04:26:28;;;;;;;2.97;1.40;;;19.70;81.20;;;;;;4994493;28;20158;-68
2022/06/23 04:29:09;;;;;;;4.47;1.60;;;19.70;81.40;;;;;;4988159;28;20548;-68
2022/06/23 04:31:39;;;;;;;3.20;1.40;;;19.70;81.60;;;;;;4988739;28;20516;-68
2022/06/23 04:34:05;;;;;;;5.20;1.52;;;19.70;81.30;;;;;;4990964;28;20049;-67
2022/06/23 04:36:43;;;;;;;6.25;1.50;;;19.80;81.40;;;;;;4990025;28;20576;-68
2022/06/23 04:39:39;;;;;;;3.25;1.67;;;19.80;81.90;;;;;;4991829;28;20387;-68
2022/06/23 04:42:26;;;;;;;4.97;1.50;;;19.80;81.70;;;;;;4993302;28;20042;-67
2022/06/23 04:45:14;;;;;;;3.85;1.70;;;19.80;81.80;;;;;;4994195;28;20038;-69
2022/06/23 04:47:41;;;;;;;5.13;1.80;;;19.80;81.50;;;;;;4995762;28;20270;-67
2022/06/23 04:50:15;;;;;;;5.55;2.03;;;19.80;81.40;;;;;;4997706;28;20038;-68
2022/06/23 04:52:51;;;;;;;7.07;1.88;;;19.80;81.80;;;;;;4996213;28;20152;-68
2022/06/23 04:55:32;;;;;;;4.70;1.60;;;19.80;81.70;;;;;;4997341;28;20073;-68
2022/06/23 04:58:12;;;;;;;8.35;1.75;;;19.90;82.00;;;;;;4998855;28;20095;-68
2022/06/23 05:00:43;;;;;;;8.40;2.00;;;19.90;81.90;;;;;;4998131;28;20026;-68
2022/06/23 05:03:18;;;;;;;5.80;1.58;;;19.90;81.90;;;;;;4998434;28;20042;-67
2022/06/23 05:05:43;;;;;;;7.68;1.63;;;19.90;82.10;;;;;;4997228;28;20035;-68
2022/06/23 05:08:26;;;;;;;4.78;1.48;;;20.00;81.90;;;;;;4993020;28;20038;-67
2022/06/23 05:11:01;;;;;;;4.15;1.77;;;20.00;82.10;;;;;;4994394;28;20042;-68
2022/06/23 05:13:36;;;;;;;3.42;1.60;;;20.00;82.20;;;;;;4996372;28;20050;-68
2022/06/23 05:16:13;;;;;;;3.58;1.77;;;20.00;82.10;;;;;;4993189;28;20563;-68
2022/06/23 05:18:47;;;;;;;2.55;1.60;;;20.10;82.10;;;;;;4993427;28;20053;-67
2022/06/23 05:21:43;;;;;;;2.92;1.50;;;20.10;82.10;;;;;;4997134;28;20068;-68
2022/06/23 05:24:25;;;;;;;5.35;1.83;;;20.20;82.40;;;;;;4988943;28;20160;-68
2022/06/23 05:27:02;;;;;;;3.03;1.33;;;20.20;82.00;;;;;;4995361;28;20460;-68
2022/06/23 05:29:46;;;;;;;7.78;1.95;;;20.20;82.40;;;;;;4995561;28;20035;-67
2022/06/23 05:32:39;;;;;;;4.68;1.88;;;20.30;82.00;;;;;;4992425;28;20133;-68
2022/06/23 05:35:20;;;;;;;5.15;1.80;;;20.40;82.00;;;;;;4993777;28;20034;-66
2022/06/23 05:38:04;;;;;;;3.90;1.77;;;20.40;81.70;;;;;;4994661;28;20379;-67
2022/06/23 05:40:49;;;;;;;3.63;1.70;;;20.50;81.50;;;;;;4998314;28;20449;-68
2022/06/23 05:43:17;;;;;;;5.63;1.80;;;20.60;81.20;;;;;;4997990;28;20034;-68
2022/06/23 05:45:47;;;;;;;6.25;1.88;;;20.70;81.10;;;;;;4993026;28;20120;-67
2022/06/23 05:48:19;;;;;;;2.78;1.50;;;20.70;81.20;;;;;;4993575;28;20030;-67
2022/06/23 05:50:45;;;;;;;5.40;1.30;;;20.80;81.20;;;;;;4994803;28;20176;-68
2022/06/23 05:53:27;;;;;;;3.42;1.45;;;20.80;81.10;;;;;;4994597;28;20034;-67
2022/06/23 05:56:01;;;;;;;4.45;1.15;;;20.90;81.10;;;;;;4991592;28;20080;-68
2022/06/23 05:58:56;;;;;;;1.95;1.20;;;20.90;80.90;;;;;;4993571;28;20509;-66
2022/06/23 06:01:31;;;;;;;2.67;1.20;;;21.00;80.60;;;;;;4982590;28;20037;-68
2022/06/23 06:04:03;;;;;;;4.85;1.08;;;21.10;80.40;;;;;;4994135;28;20116;-68
2022/06/23 06:06:30;;;;;;;3.72;1.27;;;21.10;80.10;;;;;;4994245;28;20125;-66
2022/06/23 06:11:48;;;;;;;4.07;1.00;;;21.20;79.80;;;;;;4995934;28;20045;-67
2022/06/23 06:14:17;;;;;;;1.90;1.10;;;21.30;79.60;;;;;;4993738;28;20054;-67
2022/06/23 06:16:43;;;;;;;3.63;1.10;;;21.30;79.60;;;;;;4993842;28;20034;-66
2022/06/23 06:19:15;;;;;;;3.13;0.80;;;21.40;79.80;;;;;;4993185;28;20052;-65
2022/06/23 06:21:40;;;;;;;4.07;0.85;;;21.50;79.50;;;;;;4993014;28;20030;-66
2022/06/23 06:24:12;;;;;;;6.35;1.35;;;21.50;79.20;;;;;;4991623;28;20186;-67
2022/06/23 06:26:44;;;;;;;1.88;0.80;;;21.60;79.10;;;;;;4973706;28;20097;-68
2022/06/23 06:29:29;;;;;;;2.30;1.00;;;21.60;78.70;;;;;;4993105;28;20038;-67
2022/06/23 06:32:26;;;;;;;3.47;0.95;;;21.70;78.20;;;;;;4992848;28;20046;-66
2022/06/23 06:35:17;;;;;;;3.83;0.82;;;21.70;78.40;;;;;;4977209;28;20038;-67
2022/06/23 06:38:13;;;;;;;3.65;1.00;;;21.80;78.00;;;;;;4994076;28;20133;-66
2022/06/23 06:40:42;;;;;;;3.45;0.88;;;21.80;77.50;;;;;;4984955;28;20038;-67
2022/06/23 06:43:13;;;;;;;2.45;0.88;;;21.90;77.80;;;;;;4993672;28;20120;-67
2022/06/23 06:45:40;;;;;;;3.10;1.08;;;22.00;77.60;;;;;;4994047;28;20065;-66
2022/06/23 06:48:14;;;;;;;3.03;0.63;;;22.00;77.70;;;;;;4991605;28;20113;-67
2022/06/23 06:50:46;;;;;;;3.03;1.10;;;22.10;77.50;;;;;;4994407;28;20057;-67
2022/06/23 06:53:22;;;;;;;3.13;1.02;;;22.10;77.10;;;;;;4992798;28;20038;-67
2022/06/23 06:56:02;;;;;;;1.60;0.80;;;22.20;76.80;;;;;;4995383;28;20120;-66
2022/06/23 06:58:36;;;;;;;4.82;1.13;;;22.20;76.50;;;;;;4992798;28;20040;-67
2022/06/23 07:01:07;;;;;;;;;;;22.30;76.30;;;;;;4996466;28;20038;-67
2022/06/23 07:03:35;;;;;;;1.77;0.90;;;22.40;76.60;;;;;;4995360;28;19917;-67
2022/06/23 07:06:04;;;;;;;4.75;1.02;;;22.40;76.50;;;;;;4991710;28;20072;-68
2022/06/23 07:08:55;;;;;;;2.47;0.98;;;22.50;76.60;;;;;;4991216;28;20085;-68
2022/06/23 07:11:23;;;;;;;2.83;0.90;;;22.60;75.80;;;;;;4991215;28;20041;-68
2022/06/23 07:14:05;;;;;;;5.97;1.13;;;22.60;76.40;;;;;;4995591;28;20578;-68
2022/06/23 07:16:41;;;;;;;3.15;1.00;;;22.70;76.10;;;;;;4992140;28;20042;-68
2022/06/23 07:19:27;;;;;;;2.40;0.90;;;22.70;76.40;;;;;;4993163;28;20092;-67
2022/06/23 07:22:02;;;;;;;2.38;0.85;;;22.80;75.60;;;;;;4994147;28;20088;-67
2022/06/23 07:25:17;;;;;;;4.80;1.17;;;22.80;75.60;;;;;;4990592;28;20517;-67
2022/06/23 07:28:10;;;;;;;2.60;1.05;;;22.90;74.90;;;;;;4945365;28;20078;-67
2022/06/23 07:30:42;;;;;;;2.47;1.00;;;23.00;74.60;;;;;;4992663;28;20069;-68
2022/06/23 07:33:26;;;;;;;2.20;1.15;;;23.10;75.00;;;;;;4994131;28;20058;-67
2022/06/23 07:36:14;;;;;;;2.85;1.20;;;23.10;74.00;;;;;;4994445;28;20070;-67
2022/06/23 07:38:44;;;;;;;2.75;0.80;;;23.20;73.30;;;;;;4990650;28;20279;-68
2022/06/23 07:41:41;;;;;;;20.00;1.42;;;23.30;73.80;;;;;;4992611;28;20026;-68
2022/06/23 07:44:22;;;;;;;6.63;1.08;;;23.40;74.00;;;;;;4969749;28;20030;-68
2022/06/23 07:46:48;;;;;;;4.45;1.20;;;23.40;74.30;;;;;;4995715;28;20129;-69
2022/06/23 07:49:14;;;;;;;6.07;1.55;;;23.50;74.20;;;;;;4997855;28;20045;-68
2022/06/23 07:51:41;;;;;;;5.60;1.80;;;23.60;73.70;;;;;;4995571;28;20057;-69
2022/06/23 07:54:10;;;;;;;3.38;1.23;;;23.60;73.50;;;;;;4994756;28;20058;-67
2022/06/23 07:56:39;;;;;;;5.32;1.55;;;23.70;73.50;;;;;;4995031;28;20081;-68
2022/06/23 07:59:14;;;;;;;3.47;1.60;;;23.80;73.10;;;;;;4995933;28;20045;-68
2022/06/23 08:01:51;;;;;;;3.58;1.70;;;23.80;72.60;;;;;;4994876;28;20050;-68
2022/06/23 08:04:42;;;;;;;2.75;1.70;;;23.90;71.70;;;;;;5000902;28;20027;-67
2022/06/23 08:07:10;;;;;;;3.65;1.20;;;24.00;71.30;;;;;;4994806;28;20121;-68
2022/06/23 08:09:42;;;;;;;7.65;1.50;;;24.10;72.80;;;;;;4996941;28;20096;-68
2022/06/23 08:19:15;;;;;;;3.80;1.20;;;24.30;70.00;;;;;;4924206;29;20066;-68
2022/06/23 08:21:52;;;;;;;2.67;1.20;;;24.40;69.10;;;;;;4963366;28;20026;-68
2022/06/23 08:24:23;;;;;;;4.03;1.08;;;24.50;68.60;;;;;;4985144;28;20061;-68
2022/06/23 08:27:09;;;;;;;4.75;1.20;;;24.60;69.90;;;;;;4994474;28;20398;-69
2022/06/23 08:30:03;;;;;;;3.10;1.20;;;24.70;69.30;;;;;;4979142;28;20517;-68
2022/06/23 08:32:30;;;;;;;6.25;1.08;;;24.80;69.50;;;;;;4984770;28;20041;-68
2022/06/23 08:35:05;;;;;;;5.65;1.20;;;25.00;69.90;;;;;;4995120;28;20034;-68
2022/06/23 08:37:40;;;;;;;2.47;0.98;;;25.10;69.00;;;;;;4995739;28;20116;-68
2022/06/23 08:40:18;;;;;;;3.60;1.08;;;25.20;68.80;;;;;;4996325;28;20068;-69
2022/06/23 08:42:52;;;;;;;3.35;0.90;;;25.30;68.40;;;;;;4992732;28;20525;-68
2022/06/23 08:45:38;;;;;;;5.35;0.93;;;25.50;68.10;;;;;;4996303;28;20029;-69
2022/06/23 08:48:11;;;;;;;3.75;0.93;;;25.60;67.80;;;;;;4996009;28;20029;-69
2022/06/23 08:50:44;;;;;;;5.57;0.90;;;25.70;68.40;;;;;;4994981;28;20057;-68
2022/06/23 08:53:45;;;;;;;3.05;1.00;;;25.90;68.20;;;;;;4995556;28;20044;-68
2022/06/23 08:56:23;;;;;;;3.63;1.08;;;26.00;67.90;;;;;;4997837;28;20460;-69
2022/06/23 08:58:58;;;;;;;2.40;1.10;;;26.10;67.70;;;;;;4993156;28;20041;-68
2022/06/23 09:01:33;;;;;;;4.88;1.20;;;26.20;67.00;;;;;;4993405;28;20058;-68
2022/06/23 09:04:34;;;;;;;5.95;1.00;;;26.30;64.50;;;;;;4997686;28;20070;-68
2022/06/23 09:07:07;;;;;;;1.90;1.00;;;26.40;65.70;;;;;;4999066;28;20151;-68
2022/06/23 09:09:59;;;;;;;5.03;1.20;;;26.50;64.80;;;;;;4999072;28;20484;-69
2022/06/23 09:12:24;;;;;;;3.10;1.05;;;26.60;64.60;;;;;;4996909;28;20046;-69
2022/06/23 09:15:09;;;;;;;4.18;1.13;;;26.70;64.70;;;;;;4979700;28;20037;-69
2022/06/23 09:17:53;;;;;;;4.85;1.08;;;26.80;63.10;;;;;;4999069;28;20508;-68
2022/06/23 09:20:41;;;;;;;3.22;1.17;;;26.90;64.20;;;;;;4995556;28;20410;-69
2022/06/23 09:23:28;;;;;;;6.43;1.15;;;27.00;61.90;;;;;;4992149;28;20402;-68
2022/06/23 09:25:56;;;;;;;3.40;1.02;;;27.10;62.70;;;;;;4994150;28;20084;-68
2022/06/23 09:28:53;;;;;;;4.40;1.15;;;27.10;63.20;;;;;;4996290;28;20049;-67
2022/06/23 09:31:41;;;;;;;5.50;1.02;;;27.20;60.50;;;;;;4994369;28;20084;-68
2022/06/23 09:34:30;;;;;;;3.03;0.88;;;27.30;61.00;;;;;;4991104;28;20517;-68
2022/06/23 09:37:27;;;;;;;5.15;0.98;;;27.40;61.50;;;;;;4991108;28;20046;-67
2022/06/23 09:40:08;;;;;;;5.47;1.10;;;27.50;59.30;;;;;;4992170;28;20132;-69
2022/06/23 09:42:49;;;;;;;4.35;1.00;;;27.50;58.90;;;;;;4991079;28;20477;-69
2022/06/23 09:45:44;;;;;;;2.33;0.90;;;27.60;59.50;;;;;;4991714;28;20125;-69
2022/06/23 09:48:43;;;;;;;3.90;0.98;;;27.70;58.60;;;;;;4990532;28;20368;-69
2022/06/23 09:51:46;;;;;;;4.25;1.27;;;27.80;58.40;;;;;;4992679;28;20064;-69
2022/06/23 09:54:28;;;;;;;2.53;0.88;;;27.90;58.00;;;;;;4991984;28;20121;-69
2022/06/23 09:57:16;;;;;;;5.20;1.00;;;28.00;58.30;;;;;;4990804;28;20200;-68
2022/06/23 10:00:05;;;;;;;8.57;1.58;;;28.10;58.80;;;;;;4989048;28;20040;-68
2022/06/23 10:02:55;;;;;;;3.60;1.20;;;28.10;57.60;;;;;;4992439;28;20529;-69
2022/06/23 10:05:44;;;;;;;1.70;0.88;;;28.20;58.20;;;;;;4990360;28;20069;-69
2022/06/23 10:08:28;;;;;;;4.00;1.08;;;28.30;57.50;;;;;;4991896;28;20532;-69
2022/06/23 10:11:13;;;;;;;4.50;0.75;;;28.40;58.60;;;;;;4973316;28;21464;-69
2022/06/23 10:13:57;;;;;;;5.82;0.73;;;28.40;56.90;;;;;;4993301;28;20034;-69
2022/06/23 10:16:37;;;;;;;4.73;1.00;;;28.50;57.50;;;;;;4992924;28;20057;-69
2022/06/23 10:19:15;;;;;;;2.88;1.00;;;28.60;56.60;;;;;;4992263;28;20027;-69
2022/06/23 10:21:46;;;;;;;4.32;0.93;;;28.60;57.60;;;;;;4991018;28;20041;-69
2022/06/23 10:24:31;;;;;;;3.38;1.08;;;28.70;57.60;;;;;;4991530;28;20042;-69
2022/06/23 10:27:19;;;;;;;;;;;28.70;56.70;;;;;;4990949;28;20042;-69
2022/06/23 10:30:07;;;;;;;2.40;0.80;;;28.80;58.10;;;;;;4976393;28;19922;-69
2022/06/23 10:32:55;;;;;;;6.00;1.17;;;28.90;57.20;;;;;;4988398;28;20065;-69
2022/06/23 10:35:52;;;;;;;2.97;1.00;;;29.00;56.60;;;;;;4986470;28;20117;-68
2022/06/23 10:38:36;;;;;;;6.38;1.02;;;29.00;55.50;;;;;;4995071;28;20091;-69
2022/06/23 10:41:07;;;;;;;8.03;1.00;;;29.00;56.40;;;;;;4995686;28;20037;-69
2022/06/23 10:44:14;;;;;;;5.03;1.02;;;29.10;55.30;;;;;;4993514;28;20027;-69
2022/06/23 10:46:58;;;;;;;5.50;1.00;;;29.10;55.00;;;;;;4993506;28;20032;-69
2022/06/23 10:49:39;;;;;;;4.83;0.80;;;29.20;55.60;;;;;;4993063;28;20030;-68
2022/06/23 10:52:22;;;;;;;5.32;0.93;;;29.20;55.10;;;;;;4995528;28;20036;-69
2022/06/23 10:55:03;;;;;;;2.90;1.13;;;29.30;54.50;;;;;;4994590;28;20042;-69
2022/06/23 10:57:34;;;;;;;6.05;1.20;;;29.40;54.60;;;;;;4994283;28;20026;-69
2022/06/23 11:00:07;;;;;;;4.20;1.27;;;29.40;53.10;;;;;;4992520;28;20030;-69
2022/06/23 11:03:03;;;;;;;3.53;1.02;;;29.50;52.50;;;;;;4993961;28;20045;-69
2022/06/23 11:05:59;;;;;;;4.57;0.90;;;29.50;53.10;;;;;;4993820;28;20474;-69
2022/06/23 11:08:46;;;;;;;2.92;0.98;;;29.50;54.00;;;;;;4992347;28;20478;-70
2022/06/23 11:11:36;;;;;;;4.47;1.23;;;29.60;53.80;;;;;;4975922;28;20108;-69
2022/06/23 11:14:18;;;;;;;3.78;0.85;;;29.60;53.50;;;;;;4978779;28;20129;-69
2022/06/23 11:17:16;;;;;;;8.15;1.05;;;29.70;53.30;;;;;;4992798;28;20041;-68
2022/06/23 11:19:44;;;;;;;4.25;1.05;;;29.70;52.50;;;;;;4955617;28;20077;-68
2022/06/23 11:22:41;;;;;;;4.05;1.23;;;29.70;52.60;;;;;;4991493;28;20038;-69
2022/06/23 11:25:28;;;;;;;5.10;1.05;;;29.70;53.40;;;;;;4993940;28;20052;-69
2022/06/23 11:28:18;;;;;;;4.07;0.93;;;29.70;53.30;;;;;;4993782;28;20298;-69
2022/06/23 11:30:46;;;;;;;2.95;1.05;;;29.70;53.50;;;;;;4993987;28;20089;-69
2022/06/23 11:33:36;;;;;;;4.47;1.15;;;29.70;53.30;;;;;;4995066;28;20038;-69
2022/06/23 11:36:17;;;;;;;3.70;0.90;;;29.80;53.10;;;;;;4988273;28;20285;-69
2022/06/23 11:39:08;;;;;;;5.75;1.10;;;29.80;52.90;;;;;;4992173;28;20117;-69
2022/06/23 11:41:44;;;;;;;3.60;0.98;;;29.90;50.90;;;;;;4994433;28;20022;-69
2022/06/23 11:44:53;;;;;;;3.70;1.00;;;29.80;52.00;;;;;;4991106;28;20096;-69
2022/06/23 11:47:33;;;;;;;2.72;0.70;;;29.80;52.80;;;;;;4989075;28;20497;-69
2022/06/23 11:50:12;;;;;;;5.65;0.93;;;29.80;52.30;;;;;;4992037;28;20030;-69
2022/06/23 11:52:53;;;;;;;4.93;1.15;;;29.80;51.70;;;;;;4993621;28;20062;-68
2022/06/23 11:55:45;;;;;;;4.30;0.80;;;29.90;52.50;;;;;;4992730;28;20065;-69
2022/06/23 11:58:27;;;;;;;5.25;1.08;;;29.90;52.50;;;;;;4990146;28;20536;-68
2022/06/23 12:01:20;;;;;;;5.43;0.95;;;30.00;51.10;;;;;;4992965;28;20481;-70
2022/06/23 12:04:23;;;;;;;4.57;1.15;;;30.00;51.50;;;;;;4994953;28;20034;-69
2022/06/23 12:06:54;;;;;;;4.38;1.15;;;30.10;51.10;;;;;;4991366;28;20042;-69
2022/06/23 12:09:41;;;;;;;2.28;0.95;;;30.20;51.80;;;;;;4993530;28;20418;-69
2022/06/23 12:12:07;;;;;;;3.38;0.90;;;30.20;51.60;;;;;;4992243;28;20087;-69
2022/06/23 12:14:35;;;;;;;3.40;1.05;;;30.20;52.20;;;;;;4992318;28;20030;-68
2022/06/23 12:17:11;;;;;;;3.60;0.93;;;30.30;53.00;;;;;;4993473;28;20030;-70
2022/06/23 12:19:43;;;;;;;3.30;0.90;;;30.40;51.80;;;;;;4992856;28;20089;-69
2022/06/23 12:22:19;;;;;;;8.02;1.40;;;30.40;51.50;;;;;;4992020;28;20092;-69
2022/06/23 12:24:53;;;;;;;6.05;1.10;;;30.50;51.10;;;;;;4992895;28;20038;-70
2022/06/23 12:27:25;;;;;;;;;;;30.50;49.90;;;;;;4993540;28;20425;-70
2022/06/23 12:30:16;;;;;;;5.05;1.20;;;30.60;51.50;;;;;;4989803;28;21886;-69
2022/06/23 12:32:56;;;;;;;3.30;0.90;;;30.60;50.10;;;;;;4992920;28;20038;-69
2022/06/23 12:35:27;;;;;;;7.00;1.10;;;30.60;50.50;;;;;;4994828;28;20120;-69
2022/06/23 12:38:06;;;;;;;5.55;1.00;;;30.60;50.60;;;;;;4995754;28;20045;-69
2022/06/23 12:40:46;;;;;;;3.88;1.05;;;30.60;49.50;;;;;;4995745;28;20045;-69
2022/06/23 12:43:38;;;;;;;6.15;1.02;;;30.60;49.30;;;;;;4997721;28;20047;-69
2022/06/23 12:46:27;;;;;;;3.92;1.10;;;30.60;49.00;;;;;;4997761;28;20034;-69
2022/06/23 12:49:44;;;;;;;6.47;1.10;;;30.70;49.40;;;;;;4995775;28;20092;-69
2022/06/23 12:52:41;;;;;;;5.22;0.98;;;30.70;49.40;;;;;;4971689;28;20583;-69
2022/06/23 12:55:23;;;;;;;3.97;1.08;;;30.70;48.60;;;;;;4996757;28;20513;-69
2022/06/23 12:58:19;;;;;;;4.60;0.88;;;30.80;48.00;;;;;;4995900;28;20046;-69
2022/06/23 13:00:51;;;;;;;4.75;1.08;;;30.70;47.60;;;;;;4995459;28;20026;-70
2022/06/23 13:03:19;;;;;;;2.92;0.90;;;30.70;48.70;;;;;;4996140;28;20030;-70
2022/06/23 13:05:50;;;;;;;2.92;1.02;;;30.70;49.30;;;;;;4997341;28;20026;-70
2022/06/23 13:08:37;;;;;;;2.83;0.90;;;30.80;48.80;;;;;;4995354;28;20460;-69
2022/06/23 13:11:13;;;;;;;4.50;0.73;;;30.80;48.30;;;;;;4993191;28;20108;-70
2022/06/23 13:13:55;;;;;;;7.15;1.20;;;30.80;48.50;;;;;;4996875;28;20030;-69
2022/06/23 13:16:27;;;;;;;5.75;1.30;;;30.90;47.70;;;;;;4994806;28;20042;-70
2022/06/23 13:19:05;;;;;;;3.70;1.00;;;30.90;47.60;;;;;;4994977;28;20624;-70
2022/06/23 13:21:34;;;;;;;4.68;1.15;;;30.90;47.50;;;;;;4996891;28;20537;-70
2022/06/23 13:24:01;;;;;;;3.38;0.93;;;30.90;47.10;;;;;;4995546;28;20034;-69
2022/06/23 13:26:46;;;;;;;5.53;1.23;;;30.90;47.40;;;;;;4995237;28;20038;-70
2022/06/23 13:29:20;;;;;;;;;;;30.90;47.50;;;;;;4995262;28;20096;-70
2022/06/23 13:32:06;;;;;;;5.03;0.90;;;30.90;49.00;;;;;;4995449;28;19918;-70
2022/06/23 13:34:35;;;;;;;4.07;0.88;;;30.90;47.50;;;;;;4995048;28;20054;-69
2022/06/23 13:37:22;;;;;;;5.50;1.17;;;30.90;47.30;;;;;;4994870;28;20658;-69
2022/06/23 13:39:59;;;;;;;4.90;1.02;;;31.00;47.40;;;;;;4995489;28;20034;-69
2022/06/23 13:42:44;;;;;;;3.53;1.00;;;31.00;46.80;;;;;;4995811;28;20084;-70
2022/06/23 13:45:31;;;;;;;;;;;31.10;47.00;;;;;;4996172;28;20614;-69
2022/06/23 13:48:11;;;;;;;4.32;0.85;;;31.20;48.30;;;;;;4989201;28;19982;-68
2022/06/23 13:50:43;;;;;;;4.60;0.90;;;31.30;46.30;;;;;;4992670;28;20383;-69
2022/06/23 13:53:22;;;;;;;3.58;0.80;;;31.30;46.50;;;;;;4995669;28;20444;-68
2022/06/23 13:55:59;;;;;;;4.00;0.82;;;31.40;45.30;;;;;;4992883;28;20040;-69
2022/06/23 13:59:14;;;;;;;2.85;0.80;;;31.50;45.80;;;;;;4994172;28;21807;-69
2022/06/23 14:01:56;;;;;;;3.55;0.82;;;31.50;45.00;;;;;;4951542;28;20133;-69
2022/06/23 14:04:33;;;;;;;5.25;1.10;;;31.60;45.20;;;;;;4996120;28;20038;-70
2022/06/23 14:07:18;;;;;;;3.90;1.10;;;31.70;44.90;;;;;;4993678;28;20038;-70